createdAt,value
2023-02-19T00:03:14.237Z,9.15
2023-02-19T00:08:15.997Z,10.88
2023-02-19T00:13:18.934Z,10.10
2023-02-19T00:18:20.674Z,9.90
2023-02-19T00:23:22.480Z,11.80
2023-02-19T00:28:24.200Z,12.27
2023-02-19T00:33:25.927Z,11.43
2023-02-19T00:38:27.933Z,11.27
2023-02-19T00:43:29.649Z,15.23
2023-02-19T00:48:31.348Z,12.82
2023-02-19T00:53:33.118Z,12.23
2023-02-19T00:58:35.152Z,11.73
2023-02-19T01:03:37.747Z,17.50
2023-02-19T01:08:39.696Z,14.45
2023-02-19T01:13:42.123Z,15.10
2023-02-19T01:18:44.925Z,14.73
2023-02-19T01:23:47.097Z,13.35
2023-02-19T01:28:48.953Z,14.60
2023-02-19T01:33:53.298Z,15.38
2023-02-19T01:38:55.945Z,14.10
2023-02-19T01:44:08.001Z,16.60
2023-02-19T01:49:25.759Z,14.98
2023-02-19T01:54:32.386Z,18.13
2023-02-19T01:59:34.520Z,17.38
2023-02-19T02:04:36.321Z,21.27
2023-02-19T02:09:56.562Z,17.70
2023-02-19T02:14:58.320Z,17.77
2023-02-19T02:20:37.419Z,18.48
2023-02-19T02:25:59.004Z,18.63
2023-02-19T02:31:24.264Z,17.73
2023-02-19T02:36:33.812Z,18.20
2023-02-19T02:41:40.677Z,17.77
2023-02-19T02:46:45.593Z,15.77
2023-02-19T02:51:52.302Z,14.88
2023-02-19T02:56:59.756Z,15.88
2023-02-19T03:02:22.673Z,17.10
2023-02-19T03:07:27.866Z,13.60
2023-02-19T03:12:50.753Z,12.82
2023-02-19T03:18:14.403Z,12.98
2023-02-19T03:23:19.421Z,12.50
2023-02-19T03:28:47.565Z,13.20
2023-02-19T03:33:54.305Z,14.52
2023-02-19T03:39:07.182Z,13.00
2023-02-19T03:44:18.177Z,13.13
2023-02-19T03:49:42.492Z,11.27
2023-02-19T03:54:49.820Z,9.60
2023-02-19T04:00:02.059Z,8.02
2023-02-19T04:05:19.310Z,4.90
2023-02-19T04:10:22.657Z,5.60
2023-02-19T04:15:31.662Z,5.95
2023-02-19T04:20:39.631Z,6.88
2023-02-19T04:25:45.127Z,4.55
2023-02-19T04:30:47.037Z,5.38
2023-02-19T04:35:48.802Z,4.22
2023-02-19T04:40:51.458Z,4.68
2023-02-19T04:45:53.169Z,3.42
2023-02-19T04:50:55.214Z,3.67
2023-02-19T04:55:56.905Z,4.10
2023-02-19T05:00:58.598Z,6.05
2023-02-19T05:06:06.426Z,4.57
2023-02-19T05:11:11.324Z,5.07
2023-02-19T05:16:16.113Z,4.30
2023-02-19T05:21:18.762Z,6.50
2023-02-19T05:26:22.835Z,7.85
2023-02-19T05:31:24.716Z,4.93
2023-02-19T05:36:26.499Z,5.00
2023-02-19T05:41:29.961Z,4.47
2023-02-19T05:46:31.915Z,4.47
2023-02-19T05:51:33.747Z,3.58
2023-02-19T05:56:42.642Z,4.05
2023-02-19T06:01:45.131Z,4.05
2023-02-19T06:06:48.038Z,4.75
2023-02-19T06:11:49.743Z,4.90
2023-02-19T06:16:51.460Z,3.70
2023-02-19T06:21:53.175Z,4.15
2023-02-19T06:26:54.868Z,4.05
2023-02-19T06:31:56.686Z,5.05
2023-02-19T06:36:59.093Z,4.88
2023-02-19T06:42:00.917Z,6.82
2023-02-19T06:47:02.675Z,3.53
2023-02-19T06:52:04.915Z,8.20
2023-02-19T06:57:06.691Z,2.95
2023-02-19T07:02:11.576Z,3.50
2023-02-19T07:07:14.031Z,3.88
2023-02-19T07:12:15.789Z,5.13
2023-02-19T07:17:17.621Z,6.60
2023-02-19T07:22:19.353Z,4.65
2023-02-19T07:27:21.087Z,4.32
2023-02-19T07:32:22.787Z,3.15
2023-02-19T07:37:24.553Z,4.10
2023-02-19T07:42:26.567Z,5.03
2023-02-19T07:47:29.540Z,5.18
2023-02-19T07:52:31.325Z,3.65
2023-02-19T07:57:33.064Z,3.22
2023-02-19T08:02:53.236Z,2.85
2023-02-19T08:07:54.906Z,2.92
2023-02-19T08:13:19.448Z,3.38
2023-02-19T08:18:24.616Z,3.67
2023-02-19T08:23:27.770Z,4.07
2023-02-19T08:28:30.612Z,3.85
2023-02-19T08:33:32.581Z,3.55
2023-02-19T08:38:35.926Z,3.55
2023-02-19T08:43:38.062Z,2.90
2023-02-19T08:48:40.196Z,2.78
2023-02-19T08:53:42.137Z,3.22
2023-02-19T08:58:45.413Z,3.58
2023-02-19T09:03:47.274Z,3.85
2023-02-19T09:08:48.979Z,3.45
2023-02-19T09:13:50.687Z,4.18
2023-02-19T09:18:52.404Z,5.15
2023-02-19T09:23:54.170Z,4.75
2023-02-19T09:28:55.862Z,5.63
2023-02-19T09:33:57.527Z,2.33
2023-02-19T09:39:04.459Z,2.97
2023-02-19T09:44:10.365Z,4.95
2023-02-19T09:49:19.465Z,3.20
2023-02-19T09:54:26.919Z,5.00
2023-02-19T09:59:45.825Z,2.53
2023-02-19T10:04:49.017Z,2.78
2023-02-19T10:10:01.136Z,5.18
2023-02-19T10:15:34.678Z,3.97
2023-02-19T10:20:36.466Z,2.58
2023-02-19T10:25:43.342Z,3.10
2023-02-19T10:30:51.088Z,2.72
2023-02-19T10:35:56.061Z,2.47
2023-02-19T10:41:05.945Z,2.33
2023-02-19T10:46:26.750Z,2.45
2023-02-19T10:51:40.536Z,5.80
2023-02-19T10:56:42.309Z,2.00
2023-02-19T11:02:15.444Z,3.50
2023-02-19T11:07:18.758Z,3.03
2023-02-19T11:12:29.605Z,4.50
2023-02-19T11:17:31.389Z,4.78
2023-02-19T11:22:39.048Z,2.55
2023-02-19T11:28:07.414Z,3.15
2023-02-19T11:33:24.538Z,4.05
2023-02-19T11:38:26.379Z,6.43
2023-02-19T11:44:06.108Z,7.38
2023-02-19T11:49:45.566Z,5.70
2023-02-19T11:54:52.603Z,8.18
2023-02-19T12:00:15.722Z,6.07
2023-02-19T12:05:34.931Z,8.40
2023-02-19T12:10:49.078Z,8.65
2023-02-19T12:15:56.747Z,7.15
2023-02-19T12:21:20.010Z,5.95
2023-02-19T12:26:48.822Z,4.95
2023-02-19T12:32:16.211Z,4.13
2023-02-19T12:37:38.016Z,3.72
2023-02-19T12:42:55.010Z,3.13
2023-02-19T12:48:12.764Z,3.80
2023-02-19T12:53:32.711Z,2.65
2023-02-19T12:58:58.105Z,3.78
2023-02-19T13:04:24.044Z,2.95
2023-02-19T13:09:44.108Z,6.60
2023-02-19T13:15:02.902Z,3.00
2023-02-19T13:20:24.921Z,3.90
2023-02-19T13:25:57.686Z,4.50
2023-02-19T13:31:16.738Z,4.57
2023-02-19T13:36:27.718Z,4.43
2023-02-19T13:41:35.022Z,4.03
2023-02-19T13:46:39.583Z,3.80
2023-02-19T13:51:49.292Z,4.13
2023-02-19T13:57:11.191Z,4.97
2023-02-19T14:02:22.193Z,6.18
2023-02-19T14:07:27.039Z,5.80
2023-02-19T14:12:34.261Z,5.88
2023-02-19T14:17:42.307Z,4.55
2023-02-19T14:22:47.228Z,4.13
2023-02-19T14:27:51.691Z,5.75
2023-02-19T14:38:20.251Z,5.38
2023-02-19T14:43:24.820Z,5.00
2023-02-19T14:48:37.884Z,4.20
2023-02-19T14:53:43.338Z,4.15
2023-02-19T14:58:45.166Z,8.45
2023-02-19T15:03:49.460Z,4.70
2023-02-19T15:08:57.147Z,4.63
2023-02-19T15:14:01.725Z,4.28
2023-02-19T15:19:07.700Z,3.35
2023-02-19T15:24:12.277Z,5.90
2023-02-19T15:29:16.716Z,3.88
2023-02-19T15:34:21.733Z,4.05
2023-02-19T15:39:26.377Z,3.65
2023-02-19T15:44:28.092Z,3.95
2023-02-19T15:49:58.312Z,6.45
2023-02-19T15:55:20.590Z,5.47
2023-02-19T16:00:45.617Z,5.15
2023-02-19T16:06:01.639Z,5.07
2023-02-19T16:11:23.488Z,7.47
2023-02-19T16:16:35.789Z,6.35
2023-02-19T16:21:38.519Z,5.60
2023-02-19T16:26:41.455Z,5.45
2023-02-19T16:31:51.742Z,5.50
2023-02-19T16:36:53.620Z,5.97
2023-02-19T16:42:02.148Z,5.25
2023-02-19T16:47:15.535Z,5.43
2023-02-19T16:52:17.484Z,4.40
2023-02-19T16:57:20.550Z,7.30
2023-02-19T17:02:24.498Z,5.20
2023-02-19T17:07:27.511Z,5.57
2023-02-19T17:12:29.245Z,5.13
2023-02-19T17:17:30.954Z,4.63
2023-02-19T17:22:32.671Z,7.13
2023-02-19T17:27:35.277Z,5.22
2023-02-19T17:32:36.981Z,6.55
2023-02-19T17:37:38.704Z,4.47
2023-02-19T17:42:40.428Z,4.32
2023-02-19T17:47:42.386Z,5.03
2023-02-19T17:52:44.192Z,8.57
2023-02-19T17:57:50.245Z,7.95
2023-02-19T18:02:52.448Z,7.28
2023-02-19T18:07:54.556Z,5.43
2023-02-19T18:12:56.605Z,5.32
2023-02-19T18:17:58.384Z,5.68
2023-02-19T18:23:00.182Z,4.90
2023-02-19T18:28:02.295Z,5.65
2023-02-19T18:33:04.168Z,7.88
2023-02-19T18:38:06.436Z,5.75
2023-02-19T18:43:08.262Z,6.55
2023-02-19T18:48:10.104Z,5.28
2023-02-19T18:53:12.203Z,5.60
2023-02-19T18:58:14.160Z,4.65
2023-02-19T19:03:15.981Z,8.55
2023-02-19T19:08:17.890Z,6.18
2023-02-19T19:13:19.749Z,4.53
2023-02-19T19:18:21.690Z,6.15
2023-02-19T19:23:23.519Z,5.93
2023-02-19T19:28:25.237Z,6.65
2023-02-19T19:33:28.014Z,5.20
2023-02-19T19:38:29.986Z,6.40
2023-02-19T19:43:33.675Z,5.00
2023-02-19T19:48:39.706Z,4.32
2023-02-19T19:53:41.634Z,4.75
2023-02-19T19:58:43.376Z,4.55
2023-02-19T20:03:45.229Z,8.23
2023-02-19T20:08:48.480Z,9.40
2023-02-19T20:13:50.282Z,5.53
2023-02-19T20:18:52.019Z,5.78
2023-02-19T20:23:53.751Z,7.00
2023-02-19T20:28:56.384Z,6.47
2023-02-19T20:33:58.217Z,6.32
2023-02-19T20:38:59.958Z,5.45
2023-02-19T20:44:01.796Z,5.88
2023-02-19T20:49:04.097Z,5.32
2023-02-19T20:54:05.947Z,6.65
2023-02-19T20:59:09.081Z,4.80
2023-02-19T21:04:11.172Z,4.40
2023-02-19T21:09:13.035Z,5.05
2023-02-19T21:14:15.685Z,6.22
2023-02-19T21:19:17.594Z,4.10
2023-02-19T21:24:19.295Z,4.07
2023-02-19T21:29:22.611Z,6.18
2023-02-19T21:34:29.235Z,4.10
2023-02-19T21:39:32.297Z,7.85
2023-02-19T21:44:34.020Z,5.72
2023-02-19T21:49:35.756Z,7.53
2023-02-19T21:54:37.514Z,6.70
2023-02-19T21:59:39.220Z,7.22
2023-02-19T22:04:41.216Z,9.13
2023-02-19T22:09:42.959Z,8.75
2023-02-19T22:14:45.136Z,10.15
2023-02-19T22:19:47.113Z,9.90
2023-02-19T22:24:48.820Z,6.63
2023-02-19T22:29:50.725Z,6.30
2023-02-19T22:34:52.424Z,7.63
2023-02-19T22:39:54.181Z,7.60
2023-02-19T22:44:55.988Z,8.18
2023-02-19T22:49:57.704Z,9.95
2023-02-19T22:54:59.928Z,8.43
2023-02-19T23:00:01.870Z,10.88
2023-02-19T23:05:03.738Z,9.85
2023-02-19T23:10:06.182Z,9.35
2023-02-19T23:15:09.291Z,9.77
2023-02-19T23:20:11.687Z,9.18
2023-02-19T23:25:13.555Z,8.40
2023-02-19T23:30:17.186Z,8.82
2023-02-19T23:35:19.017Z,12.27
2023-02-19T23:40:20.770Z,9.60
2023-02-19T23:45:23.032Z,11.05
2023-02-19T23:50:24.856Z,9.98
2023-02-19T23:55:27.093Z,9.75
